Time;durP1;ratioP1;P1;durP2;ratioP2;P2;SDS_P1;SDS_P2;PMS_P1;PMS_P2;Temp;Humidity;BMP_temperature;BMP_pressure;BME280_temperature;BME280_humidity;BME280_pressure;Samples;Min_cycle;Max_cycle;Signal;HPM_P1;HPM_P2
2024/03/21 00:00:13;;;;;;;0.50;0.50;;;;;;;9.61;80.98;97082.84;29395;259;63000;-56
2024/03/21 00:00:45;;;;;;;0.50;0.50;;;;;;;9.61;81.63;97075.50;29395;219;63008;-56
2024/03/21 00:01:16;;;;;;;0.50;0.50;;;;;;;9.61;81.35;97082.84;29394;218;64009;-56
2024/03/21 00:01:47;;;;;;;0.50;0.50;;;;;;;9.61;81.23;97086.34;29395;198;63014;-56
2024/03/21 00:02:19;;;;;;;0.50;0.50;;;;;;;9.64;80.80;97085.78;29395;198;63005;-57
2024/03/21 00:02:50;;;;;;;0.50;0.50;;;;;;;9.65;81.61;97089.31;29395;322;63009;-56
2024/03/21 00:03:22;;;;;;;0.50;0.50;;;;;;;9.64;81.32;97079.56;29395;261;63008;-72
2024/03/21 00:03:53;;;;;;;0.50;0.50;;;;;;;9.65;81.43;97087.41;29395;251;63009;-56
2024/03/21 00:04:25;;;;;;;0.50;0.50;;;;;;;9.66;81.24;97083.63;29395;256;63000;-74
2024/03/21 00:04:56;;;;;;;0.50;0.50;;;;;;;9.67;81.07;97084.41;29395;288;63009;-56
2024/03/21 00:05:27;;;;;;;0.50;0.50;;;;;;;9.69;80.87;97088.47;29395;256;63004;-55
2024/03/21 00:05:59;;;;;;;0.50;0.50;;;;;;;9.68;80.80;97075.19;29395;202;63009;-56
2024/03/21 00:06:30;;;;;;;0.50;0.50;;;;;;;9.69;80.99;97083.06;29394;209;64009;-72
2024/03/21 00:07:04;;;;;;;0.50;0.50;;;;;;;9.69;81.14;97088.47;29395;233;63009;-55
2024/03/21 00:07:36;;;;;;;0.50;0.50;;;;;;;9.70;81.03;97081.16;29394;210;64008;-56
2024/03/21 00:08:08;;;;;;;0.50;0.50;;;;;;;9.71;81.04;97085.44;29395;225;63008;-56
2024/03/21 00:08:40;;;;;;;0.50;0.50;;;;;;;9.72;80.67;97087.88;29395;472;63005;-56
2024/03/21 00:09:11;;;;;;;0.50;0.50;;;;;;;9.73;80.71;97083.25;29395;234;63009;-56
2024/03/21 00:09:43;;;;;;;0.50;0.50;;;;;;;9.74;80.66;97079.47;29395;237;63005;-56
2024/03/21 00:10:20;;;;;;;0.50;0.50;;;;;;;9.75;80.41;97075.66;29395;229;63009;-56
2024/03/21 00:10:51;;;;;;;0.50;0.50;;;;;;;9.78;80.01;97085.12;29395;241;63005;-56
2024/03/21 00:11:23;;;;;;;0.50;0.50;;;;;;;9.79;80.04;97078.62;29395;262;63014;-56
2024/03/21 00:11:54;;;;;;;0.50;0.50;;;;;;;9.82;79.14;97086.19;29395;255;63005;-56
2024/03/21 00:12:29;;;;;;;0.50;0.50;;;;;;;9.83;79.34;97072.34;29395;221;63009;-56
2024/03/21 00:13:01;;;;;;;0.50;0.50;;;;;;;9.86;79.50;97079.94;29394;266;64009;-73
2024/03/21 00:13:32;;;;;;;0.50;0.50;;;;;;;9.86;79.48;97077.22;29394;263;64013;-56
2024/03/21 00:14:03;;;;;;;0.50;0.50;;;;;;;9.89;78.79;97075.84;29395;241;63004;-55
2024/03/21 00:14:35;;;;;;;0.50;0.50;;;;;;;9.91;78.63;97074.47;29394;214;64013;-73
2024/03/21 00:15:08;;;;;;;0.50;0.50;;;;;;;9.91;79.08;97074.47;29395;250;63004;-56
2024/03/21 00:15:41;;;;;;;0.50;0.50;;;;;;;9.92;78.79;97070.66;29395;231;63016;-56
2024/03/21 00:16:12;;;;;;;0.50;0.50;;;;;;;9.92;78.69;97070.66;29395;225;63005;-75
2024/03/21 00:16:44;;;;;;;0.50;0.50;;;;;;;9.93;78.29;97072.28;29395;229;63005;-55
2024/03/21 00:17:15;;;;;;;0.50;0.50;;;;;;;9.96;77.96;97079.03;29395;246;63005;-56
2024/03/21 00:17:48;;;;;;;0.50;0.50;;;;;;;9.96;78.03;97071.72;29395;270;63009;-56
2024/03/21 00:18:22;;;;;;;0.50;0.50;;;;;;;9.97;77.70;97076.03;29394;207;64009;-56
2024/03/21 00:18:54;;;;;;;0.50;0.50;;;;;;;10.00;78.03;97067.34;29395;256;63015;-56
2024/03/21 00:19:25;;;;;;;0.50;0.50;;;;;;;10.02;77.93;97070.59;29395;234;63005;-56
2024/03/21 00:19:56;;;;;;;0.50;0.50;;;;;;;10.04;77.83;97067.59;29395;238;63009;-56
2024/03/21 00:20:30;;;;;;;0.50;0.50;;;;;;;10.04;77.02;97071.09;29395;271;63004;-55
2024/03/21 00:21:02;;;;;;;0.50;0.50;;;;;;;10.05;77.35;97075.41;29395;228;63009;-75
2024/03/21 00:21:34;;;;;;;0.50;0.50;;;;;;;10.06;77.31;97076.22;29395;245;63000;-73
2024/03/21 00:22:05;;;;;;;0.50;0.50;;;;;;;10.06;77.26;97068.91;29395;204;63009;-56
2024/03/21 00:22:38;;;;;;;0.50;0.50;;;;;;;10.06;77.07;97077.03;29395;226;63004;-56
2024/03/21 00:23:10;;;;;;;0.50;0.50;;;;;;;10.07;77.34;97070.50;29394;196;64013;-74
2024/03/21 00:23:42;;;;;;;0.50;0.50;;;;;;;10.07;76.92;97077.84;29395;266;63005;-57
2024/03/21 00:24:14;;;;;;;0.50;0.50;;;;;;;10.08;77.17;97066.72;29395;298;63009;-56
2024/03/21 00:24:45;;;;;;;0.50;0.50;;;;;;;10.09;77.12;97076.47;29395;253;63008;-56
2024/03/21 00:25:17;;;;;;;0.50;0.50;;;;;;;10.09;77.10;97076.47;29394;226;64009;-56
2024/03/21 00:25:49;;;;;;;0.50;0.50;;;;;;;10.11;77.07;97068.03;29395;202;63009;-55
2024/03/21 00:26:20;;;;;;;0.50;0.50;;;;;;;10.11;77.14;97068.03;29395;215;63009;-57
2024/03/21 00:26:51;;;;;;;0.50;0.50;;;;;;;10.12;76.62;97071.56;29394;258;64005;-55
2024/03/21 00:27:22;;;;;;;0.50;0.50;;;;;;;10.13;76.72;97070.47;29395;251;63009;-56
2024/03/21 00:27:54;;;;;;;0.50;0.50;;;;;;;10.12;76.97;97077.00;29395;202;63004;-56
2024/03/21 00:28:26;;;;;;;0.68;0.68;;;;;;;10.14;76.67;97072.91;29394;240;64013;-56
2024/03/21 00:28:59;;;;;;;0.50;0.50;;;;;;;10.14;76.52;97072.09;29395;205;63004;-56
2024/03/21 00:29:31;;;;;;;0.50;0.50;;;;;;;10.15;76.64;97068.28;29395;256;63009;-56
2024/03/21 00:30:05;;;;;;;0.50;0.50;;;;;;;10.16;76.44;97064.47;29395;206;63011;-56
2024/03/21 00:30:36;;;;;;;0.50;0.50;;;;;;;10.17;76.42;97066.09;29395;223;63008;-74
2024/03/21 00:31:08;;;;;;;0.50;0.50;;;;;;;10.18;76.51;97067.72;29395;218;63005;-56
2024/03/21 00:31:42;;;;;;;0.50;0.50;;;;;;;10.20;76.86;97062.84;29395;211;63009;-56
2024/03/21 00:32:13;;;;;;;0.50;0.50;;;;;;;10.20;76.51;97060.13;29395;272;63007;-55
2024/03/21 00:32:45;;;;;;;0.50;0.50;;;;;;;10.21;76.83;97064.47;29395;239;63009;-56
2024/03/21 00:33:16;;;;;;;0.50;0.50;;;;;;;10.20;76.36;97057.44;29394;232;64009;-74
2024/03/21 00:33:49;;;;;;;0.50;0.50;;;;;;;10.19;76.48;97069.34;29395;265;63009;-74
2024/03/21 00:34:20;;;;;;;0.50;0.50;;;;;;;10.19;76.43;97064.75;29395;238;63005;-56
2024/03/21 00:34:54;;;;;;;0.50;0.50;;;;;;;10.19;76.22;97063.91;29394;264;64013;-56
2024/03/21 00:35:26;;;;;;;0.50;0.50;;;;;;;10.19;76.58;97063.91;29395;226;63004;-74
2024/03/21 00:35:58;;;;;;;0.50;0.50;;;;;;;10.19;76.80;97063.91;29395;208;63009;-56
2024/03/21 00:36:29;;;;;;;0.50;0.50;;;;;;;10.20;76.35;97055.53;29395;248;63009;-76
2024/03/21 00:37:01;;;;;;;0.50;0.50;;;;;;;10.21;76.52;97067.19;29395;221;63019;-74
2024/03/21 00:37:32;;;;;;;0.50;0.50;;;;;;;10.21;76.21;97059.84;29395;240;63011;-72
2024/03/21 00:38:07;;;;;;;0.50;0.50;;;;;;;10.22;76.37;97060.66;29394;237;64013;-56
2024/03/21 00:38:38;;;;;;;0.50;0.50;;;;;;;10.22;75.92;97057.94;29395;235;63005;-75
2024/03/21 00:39:18;;;;;;;0.50;0.50;;;;;;;10.22;76.44;97057.94;29395;234;63009;-72
2024/03/21 00:39:50;;;;;;;0.60;0.60;;;;;;;10.21;76.31;97061.75;29417;210;63005;-56
2024/03/21 00:40:21;;;;;;;0.50;0.50;;;;;;;10.20;76.04;97057.44;29395;221;63019;-74
2024/03/21 00:40:53;;;;;;;0.50;0.50;;;;;;;10.19;75.95;97058.50;29395;202;63011;-56
2024/03/21 00:41:24;;;;;;;0.50;0.50;;;;;;;10.20;76.13;97054.72;29395;203;63009;-56
2024/03/21 00:41:55;;;;;;;0.50;0.50;;;;;;;10.19;76.99;97053.91;29395;198;63014;-56
2024/03/21 00:42:28;;;;;;;0.50;0.50;;;;;;;10.17;76.60;97049.81;29395;209;63009;-56
2024/03/21 00:43:00;;;;;;;0.50;0.50;;;;;;;10.17;76.59;97053.34;29394;209;64009;-73
2024/03/21 00:43:31;;;;;;;0.50;0.50;;;;;;;10.17;76.78;97055.25;29395;203;63009;-56
2024/03/21 00:44:04;;;;;;;0.50;0.50;;;;;;;10.17;76.44;97049.81;29395;203;63004;-56
2024/03/21 00:44:36;;;;;;;0.50;0.50;;;;;;;10.16;77.00;97056.34;29395;237;63009;-55
2024/03/21 00:45:08;;;;;;;0.50;0.50;;;;;;;10.17;76.73;97057.97;29394;202;64009;-56
2024/03/21 00:45:39;;;;;;;0.50;0.50;;;;;;;10.16;76.77;97056.34;29395;210;63009;-56
2024/03/21 00:46:13;;;;;;;0.50;0.50;;;;;;;10.14;77.06;97053.09;29394;242;64009;-56
2024/03/21 00:46:45;;;;;;;0.50;0.50;;;;;;;10.13;77.61;97060.44;29394;241;64014;-73
2024/03/21 00:47:16;;;;;;;0.50;0.50;;;;;;;10.12;77.07;97053.41;29395;231;63005;-56
2024/03/21 00:47:49;;;;;;;0.50;0.50;;;;;;;10.11;77.25;97050.97;29395;199;63009;-56
2024/03/21 00:48:21;;;;;;;0.50;0.50;;;;;;;10.11;77.38;97056.38;29395;390;63005;-55
2024/03/21 00:48:52;;;;;;;0.50;0.50;;;;;;;10.11;77.26;97054.50;29394;202;64013;-56
2024/03/21 00:49:23;;;;;;;0.50;0.50;;;;;;;10.10;77.29;97055.59;29395;266;63005;-56
2024/03/21 00:49:55;;;;;;;0.50;0.50;;;;;;;10.10;77.23;97050.16;29395;212;63009;-56
2024/03/21 00:50:26;;;;;;;0.50;0.50;;;;;;;10.09;77.43;97053.97;29395;243;63004;-56
2024/03/21 00:50:59;;;;;;;0.50;0.50;;;;;;;10.09;77.28;97053.97;29395;232;63009;-74
2024/03/21 00:51:33;;;;;;;0.50;0.50;;;;;;;10.09;77.51;97057.47;29395;212;63004;-56
2024/03/21 00:52:05;;;;;;;0.50;0.50;;;;;;;10.08;77.12;97049.63;29395;351;63009;-56
2024/03/21 00:52:36;;;;;;;0.50;0.50;;;;;;;10.06;77.41;97055.34;29395;236;63013;-75
2024/03/21 00:53:08;;;;;;;0.50;0.50;;;;;;;10.04;77.25;97052.13;29395;263;63008;-55
2024/03/21 00:53:39;;;;;;;0.50;0.50;;;;;;;10.02;78.17;97057.03;29395;235;63005;-55
2024/03/21 00:54:10;;;;;;;0.50;0.50;;;;;;;10.02;77.73;97053.50;29394;209;64014;-56
2024/03/21 00:54:42;;;;;;;0.50;0.50;;;;;;;10.00;77.71;97056.50;29395;225;63005;-70
2024/03/21 00:55:14;;;;;;;0.50;0.50;;;;;;;9.99;77.80;97052.19;29395;251;63009;-56
2024/03/21 00:55:45;;;;;;;0.50;0.50;;;;;;;9.97;77.71;97048.94;29395;198;63005;-56
2024/03/21 00:56:16;;;;;;;0.50;0.50;;;;;;;9.96;78.09;97050.03;29395;256;63009;-70
2024/03/21 00:56:48;;;;;;;0.50;0.50;;;;;;;9.97;77.74;97051.66;29395;262;63017;-72
2024/03/21 00:57:21;;;;;;;0.50;0.50;;;;;;;9.95;78.20;97053.84;29395;232;63009;-55
2024/03/21 00:57:53;;;;;;;0.50;0.50;;;;;;;9.94;78.30;97054.13;29395;200;63013;-56
2024/03/21 00:58:25;;;;;;;0.50;0.50;;;;;;;9.93;78.12;97056.03;29395;256;63004;-56
2024/03/21 00:58:58;;;;;;;0.50;0.50;;;;;;;9.92;78.36;97059.81;29395;203;63004;-56
2024/03/21 00:59:30;;;;;;;0.50;0.50;;;;;;;9.90;78.72;97055.78;29394;220;64013;-57
2024/03/21 01:00:02;;;;;;;0.50;0.50;;;;;;;9.88;79.03;97057.97;29395;202;63004;-56
2024/03/21 01:00:34;;;;;;;0.50;0.50;;;;;;;9.86;78.69;97050.13;29394;213;64013;-56
2024/03/21 01:01:06;;;;;;;0.50;0.50;;;;;;;9.87;78.54;97062.56;29395;218;63004;-57
2024/03/21 01:01:39;;;;;;;0.50;0.50;;;;;;;9.87;79.03;97056.34;29394;256;64009;-56
2024/03/21 01:02:11;;;;;;;0.50;0.50;;;;;;;9.86;79.15;97055.53;29395;264;63000;-72
2024/03/21 01:02:42;;;;;;;0.50;0.50;;;;;;;9.84;79.97;97052.28;29395;205;63009;-56
2024/03/21 01:03:13;;;;;;;0.50;0.50;;;;;;;9.83;79.46;97058.81;29395;186;63005;-56
2024/03/21 01:03:48;;;;;;;0.50;0.50;;;;;;;9.83;79.99;97056.09;29395;228;63009;-56
2024/03/21 01:04:20;;;;;;;0.50;0.50;;;;;;;9.83;79.47;97056.09;29395;246;63005;-73
2024/03/21 01:04:52;;;;;;;0.50;0.50;;;;;;;9.85;79.43;97061.25;29395;202;63004;-56
2024/03/21 01:05:25;;;;;;;0.50;0.50;;;;;;;9.85;79.54;97053.91;29394;197;64009;-56
2024/03/21 01:05:57;;;;;;;0.50;0.50;;;;;;;9.87;79.42;97059.06;29395;215;63009;-71
2024/03/21 01:06:29;;;;;;;0.50;0.50;;;;;;;9.89;79.76;97056.88;29395;219;63018;-71
2024/03/21 01:07:02;;;;;;;0.50;0.50;;;;;;;9.90;79.47;97055.78;29395;232;63009;-56
2024/03/21 01:07:34;;;;;;;0.50;0.50;;;;;;;9.91;79.20;97052.78;29395;230;63004;-56
2024/03/21 01:08:07;;;;;;;0.50;0.50;;;;;;;9.92;79.27;97059.81;29395;219;63009;-57
2024/03/21 01:08:38;;;;;;;0.50;0.50;;;;;;;9.93;79.53;97056.03;29395;226;63005;-67
2024/03/21 01:09:11;;;;;;;0.50;0.50;;;;;;;9.95;79.17;97059.25;29395;242;63009;-69
2024/03/21 01:09:43;;;;;;;0.50;0.50;;;;;;;9.95;79.42;97053.84;29394;256;64009;-56
2024/03/21 01:10:14;;;;;;;0.50;0.50;;;;;;;9.95;79.26;97053.84;29395;254;63009;-56
2024/03/21 01:10:52;;;;;;;0.50;0.50;;;;;;;9.97;79.44;97056.25;29395;243;63005;-56
2024/03/21 01:11:24;;;;;;;0.50;0.50;;;;;;;9.99;79.11;97049.47;29395;249;63009;-56
2024/03/21 01:11:58;;;;;;;0.50;0.50;;;;;;;9.99;79.56;97052.19;29395;252;63005;-69
2024/03/21 01:12:29;;;;;;;0.50;0.50;;;;;;;9.99;79.37;97059.50;29395;197;63004;-55
2024/03/21 01:13:01;;;;;;;0.50;0.50;;;;;;;9.99;79.58;97060.31;29395;234;63004;-56
2024/03/21 01:13:32;;;;;;;0.50;0.50;;;;;;;9.98;79.44;97050.56;29395;253;63009;-56
2024/03/21 01:14:03;;;;;;;0.50;0.50;;;;;;;10.00;79.03;97055.69;29395;231;63004;-56
2024/03/21 01:14:34;;;;;;;0.50;0.50;;;;;;;9.99;79.51;97049.47;29395;265;63009;-56
2024/03/21 01:15:07;;;;;;;0.50;0.50;;;;;;;9.98;79.71;97053.28;29394;241;64008;-75
2024/03/21 01:15:39;;;;;;;0.50;0.50;;;;;;;9.97;79.37;97051.66;29395;250;63016;-56
2024/03/21 01:16:12;;;;;;;0.50;0.50;;;;;;;9.96;79.53;97050.03;29395;197;63005;-72
2024/03/21 01:16:44;;;;;;;0.50;0.50;;;;;;;9.96;80.15;97050.03;29395;266;63009;-56
2024/03/21 01:17:15;;;;;;;0.50;0.50;;;;;;;9.96;79.38;97049.22;29395;197;63005;-55
2024/03/21 01:17:47;;;;;;;0.50;0.50;;;;;;;9.98;79.15;97047.84;29395;218;63009;-56
2024/03/21 01:18:25;;;;;;;0.50;0.50;;;;;;;9.99;79.12;97052.19;29395;205;63005;-56
2024/03/21 01:18:57;;;;;;;0.50;0.50;;;;;;;10.00;79.28;97051.09;29395;205;63009;-56
2024/03/21 01:19:28;;;;;;;0.50;0.50;;;;;;;9.99;78.88;97054.88;29395;202;63005;-56
2024/03/21 01:20:00;;;;;;;0.50;0.50;;;;;;;9.99;79.28;97051.37;29394;247;64013;-56
2024/03/21 01:20:31;;;;;;;0.50;0.50;;;;;;;9.98;79.31;97050.56;29395;202;63009;-74
2024/03/21 01:21:05;;;;;;;0.50;0.50;;;;;;;9.98;79.60;97047.84;29395;211;63009;-73
2024/03/21 01:21:37;;;;;;;0.50;0.50;;;;;;;9.99;79.57;97049.47;29395;217;63004;-56
2024/03/21 01:22:09;;;;;;;0.50;0.50;;;;;;;9.99;79.16;97049.47;29395;260;63007;-74
2024/03/21 01:22:44;;;;;;;0.50;0.50;;;;;;;10.00;79.30;97052.97;29395;228;63004;-56
2024/03/21 01:23:19;;;;;;;0.50;0.50;;;;;;;10.01;79.71;97046.47;29395;300;63009;-56
2024/03/21 01:23:53;;;;;;;0.50;0.50;;;;;;;10.01;79.19;97049.19;29395;205;63001;-56
2024/03/21 01:24:24;;;;;;;0.50;0.50;;;;;;;10.01;79.10;97044.56;29394;219;64014;-56
2024/03/21 01:24:56;;;;;;;0.50;0.50;;;;;;;10.02;79.37;97048.91;29395;261;63005;-56
2024/03/21 01:25:28;;;;;;;0.50;0.50;;;;;;;10.03;79.09;97047.81;29395;222;63009;-72
2024/03/21 01:26:00;;;;;;;0.50;0.50;;;;;;;10.04;79.17;97041.28;29395;198;63000;-71
2024/03/21 01:26:32;;;;;;;0.50;0.50;;;;;;;10.04;79.50;97046.72;29395;227;63009;-56
2024/03/21 01:27:06;;;;;;;0.50;0.50;;;;;;;10.04;79.40;97046.72;29395;245;63005;-71
2024/03/21 01:27:38;;;;;;;0.50;0.50;;;;;;;10.05;79.54;97044.78;29395;233;63009;-56
2024/03/21 01:28:10;;;;;;;0.50;0.50;;;;;;;10.06;78.95;97049.09;29395;224;63004;-56
2024/03/21 01:28:41;;;;;;;0.50;0.50;;;;;;;10.07;79.59;97035.28;29395;236;63009;-56
2024/03/21 01:29:12;;;;;;;0.50;0.50;;;;;;;10.04;79.42;97035.06;29394;222;64009;-56
2024/03/21 01:29:44;;;;;;;0.50;0.50;;;;;;;10.08;79.87;97042.31;29395;239;63008;-56
2024/03/21 01:30:16;;;;;;;0.50;0.50;;;;;;;10.08;79.49;97045.03;29395;224;63004;-56
2024/03/21 01:30:49;;;;;;;0.50;0.50;;;;;;;10.11;79.34;97045.53;29395;256;63016;-74
2024/03/21 01:31:22;;;;;;;0.50;0.50;;;;;;;10.11;79.37;97046.34;29394;202;64009;-55
2024/03/21 01:31:53;;;;;;;0.50;0.50;;;;;;;10.15;79.06;97041.97;29395;260;63009;-55
2024/03/21 01:32:27;;;;;;;0.50;0.50;;;;;;;10.17;79.43;97044.41;29395;222;63005;-55
2024/03/21 01:32:59;;;;;;;0.50;0.50;;;;;;;10.16;79.63;97037.38;29395;200;63009;-56
2024/03/21 01:33:33;;;;;;;0.50;0.50;;;;;;;10.15;79.39;97044.69;29395;263;63005;-57
2024/03/21 01:34:06;;;;;;;0.50;0.50;;;;;;;10.17;79.35;97044.41;29394;249;64013;-56
2024/03/21 01:34:38;;;;;;;0.50;0.50;;;;;;;10.18;79.32;97054.16;29395;197;63008;-56
2024/03/21 01:35:09;;;;;;;0.50;0.50;;;;;;;10.18;79.63;97052.25;29395;218;63009;-56
2024/03/21 01:35:41;;;;;;;0.43;0.43;;;;;;;10.20;79.47;97046.56;29395;198;63004;-56
2024/03/21 01:36:12;;;;;;;0.50;0.50;;;;;;;10.20;80.12;97052.00;29395;206;63009;-56
2024/03/21 01:36:47;;;;;;;0.50;0.50;;;;;;;10.19;79.74;97053.06;29395;243;63004;-56
2024/03/21 01:37:19;;;;;;;0.60;0.60;;;;;;;10.19;79.91;97047.62;29395;271;63008;-56
2024/03/21 01:37:51;;;;;;;0.50;0.50;;;;;;;10.21;79.27;97045.47;29394;222;64008;-56
2024/03/21 01:38:22;;;;;;;0.50;0.50;;;;;;;10.22;79.52;97041.69;29395;220;63009;-73
2024/03/21 01:38:53;;;;;;;0.50;0.50;;;;;;;10.23;79.52;97043.28;29395;237;63005;-55
2024/03/21 01:39:28;;;;;;;0.50;0.50;;;;;;;10.23;79.32;97043.28;29395;224;63009;-55
2024/03/21 01:40:06;;;;;;;0.50;0.50;;;;;;;10.23;79.09;97043.28;29396;204;63005;-56
2024/03/21 01:40:38;;;;;;;0.50;0.50;;;;;;;10.23;79.41;97043.28;29396;259;63005;-56
2024/03/21 01:41:10;;;;;;;0.50;0.50;;;;;;;10.22;79.95;97045.19;29395;277;64005;-56
2024/03/21 01:41:41;;;;;;;0.50;0.50;;;;;;;10.23;79.30;97037.88;29396;237;63009;-56
2024/03/21 01:42:19;;;;;;;0.50;0.50;;;;;;;10.24;79.44;97042.19;29396;222;63005;-56
2024/03/21 01:42:51;;;;;;;0.50;0.50;;;;;;;10.26;79.18;97040.00;29396;214;63009;-68
2024/03/21 01:43:24;;;;;;;0.50;0.50;;;;;;;10.30;78.85;97043.78;29395;245;64009;-55
2024/03/21 01:43:56;;;;;;;0.50;0.50;;;;;;;10.31;78.79;97039.97;29396;210;63019;-69
2024/03/21 01:44:27;;;;;;;0.50;0.50;;;;;;;10.32;78.93;97041.59;29396;306;63004;-71
2024/03/21 01:45:05;;;;;;;0.50;0.50;;;;;;;10.34;78.63;97039.41;29395;208;64013;-71
2024/03/21 01:45:38;;;;;;;0.50;0.50;;;;;;;10.33;78.93;97044.00;29396;265;63004;-71
2024/03/21 01:46:20;;;;;;;0.50;0.50;;;;;;;10.32;79.63;97047.00;29396;227;63009;-56
2024/03/21 01:46:52;;;;;;;0.50;0.50;;;;;;;10.30;79.09;97043.78;29396;228;63005;-56
2024/03/21 01:47:23;;;;;;;0.50;0.50;;;;;;;10.30;79.25;97043.78;29396;237;63009;-72
2024/03/21 01:47:58;;;;;;;0.50;0.50;;;;;;;10.29;79.03;97042.16;29396;196;63000;-56
2024/03/21 01:48:30;;;;;;;0.50;0.50;;;;;;;10.26;80.02;97040.00;29395;211;64013;-70
2024/03/21 01:49:01;;;;;;;0.50;0.50;;;;;;;10.25;80.17;97041.09;29396;255;63005;-56
2024/03/21 01:49:32;;;;;;;0.50;0.50;;;;;;;10.24;79.78;97044.91;29396;222;63009;-56
2024/03/21 01:50:08;;;;;;;0.50;0.50;;;;;;;10.23;79.66;97037.88;29396;207;63004;-56
2024/03/21 01:50:42;;;;;;;0.50;0.50;;;;;;;10.24;80.09;97045.72;29396;212;63017;-56
2024/03/21 01:51:14;;;;;;;1.67;1.67;;;;;;;10.23;80.50;97040.59;29396;229;63004;-55
2024/03/21 01:51:47;;;;;;;0.50;0.50;;;;;;;10.21;80.21;97035.44;29396;258;63009;-56
2024/03/21 01:52:18;;;;;;;0.50;0.50;;;;;;;10.23;80.54;97040.59;29396;226;63000;-69
2024/03/21 01:52:50;;;;;;;0.50;0.50;;;;;;;10.24;80.47;97042.19;29395;198;64013;-56
2024/03/21 01:53:22;;;;;;;0.50;0.50;;;;;;;10.23;80.70;97043.28;29396;262;63005;-56
2024/03/21 01:53:55;;;;;;;0.50;0.50;;;;;;;10.23;80.99;97043.28;29396;219;63009;-56
2024/03/21 01:54:26;;;;;;;0.50;0.50;;;;;;;10.23;80.95;97037.88;29396;220;63005;-56
2024/03/21 01:54:58;;;;;;;0.50;0.50;;;;;;;10.25;80.53;97038.41;29396;214;63009;-56
2024/03/21 01:55:29;;;;;;;0.50;0.50;;;;;;;10.25;80.90;97041.09;29396;227;63000;-56
2024/03/21 01:56:01;;;;;;;0.50;0.50;;;;;;;10.20;80.27;97022.97;29396;226;63009;-56
2024/03/21 01:56:34;;;;;;;0.50;0.50;;;;;;;10.24;80.29;97034.06;29396;225;63005;-56
2024/03/21 01:57:05;;;;;;;0.50;0.50;;;;;;;10.24;80.29;97034.88;29395;267;64013;-70
2024/03/21 01:57:36;;;;;;;0.50;0.50;;;;;;;10.23;79.94;97040.59;29396;206;63004;-56
2024/03/21 01:58:07;;;;;;;0.50;0.50;;;;;;;10.24;80.03;97034.06;29395;270;64013;-56
2024/03/21 01:58:41;;;;;;;0.40;0.40;;;;;;;10.25;80.66;97041.09;29396;234;63004;-73
2024/03/21 01:59:15;;;;;;;0.50;0.50;;;;;;;10.24;80.41;97034.88;29395;235;64013;-56
2024/03/21 01:59:46;;;;;;;0.50;0.50;;;;;;;10.25;80.52;97031.06;29396;237;63004;-73
2024/03/21 02:00:18;;;;;;;0.50;0.50;;;;;;;10.27;80.63;97038.91;29396;209;63017;-56
2024/03/21 02:00:49;;;;;;;0.50;0.50;;;;;;;10.26;80.41;97042.72;29396;222;63008;-56
2024/03/21 02:01:33;;;;;;;0.50;0.50;;;;;;;10.27;81.04;97038.91;29396;233;63009;-56
2024/03/21 02:02:05;;;;;;;0.50;0.50;;;;;;;10.27;81.10;97034.31;29396;202;63005;-56
2024/03/21 02:02:36;;;;;;;0.50;0.50;;;;;;;10.30;81.38;97043.78;29396;218;63009;-57
2024/03/21 02:03:08;;;;;;;0.50;0.50;;;;;;;10.30;81.03;97039.16;29396;274;63005;-55
2024/03/21 02:03:43;;;;;;;0.50;0.50;;;;;;;10.30;81.77;97032.94;29396;216;63009;-56
2024/03/21 02:04:15;;;;;;;0.50;0.50;;;;;;;10.30;81.40;97035.63;29395;256;64009;-57
2024/03/21 02:04:49;;;;;;;0.50;0.50;;;;;;;10.30;81.85;97043.78;29396;260;63004;-56
2024/03/21 02:05:21;;;;;;;0.50;0.50;;;;;;;10.31;81.03;97039.97;29396;198;63004;-56
2024/03/21 02:05:52;;;;;;;0.50;0.50;;;;;;;10.33;80.88;97043.19;29396;204;63009;-56
2024/03/21 02:06:26;;;;;;;0.50;0.50;;;;;;;10.34;80.74;97040.19;29396;273;63018;-55
2024/03/21 02:06:57;;;;;;;0.50;0.50;;;;;;;10.38;81.10;97040.44;29396;218;63008;-73
2024/03/21 02:07:28;;;;;;;0.50;0.50;;;;;;;10.40;81.68;97043.66;29396;221;63011;-55
2024/03/21 02:08:02;;;;;;;0.50;0.50;;;;;;;10.42;82.11;97038.75;29396;210;63009;-56
2024/03/21 02:08:34;;;;;;;0.50;0.50;;;;;;;10.42;82.32;97041.44;29396;203;63005;-56
2024/03/21 02:09:09;;;;;;;0.50;0.50;;;;;;;10.39;82.55;97040.16;29396;202;63009;-67
2024/03/21 02:09:41;;;;;;;0.50;0.50;;;;;;;10.41;82.10;97040.66;29395;242;64009;-55
2024/03/21 02:10:12;;;;;;;0.50;0.50;;;;;;;10.43;81.92;97037.66;29396;216;63009;-56
2024/03/21 02:10:44;;;;;;;0.50;0.50;;;;;;;10.44;82.22;97041.16;29396;247;63005;-55
2024/03/21 02:11:15;;;;;;;0.50;0.50;;;;;;;10.44;81.70;97050.13;29396;245;63009;-56
2024/03/21 02:11:47;;;;;;;0.50;0.50;;;;;;;10.47;81.98;97041.41;29396;253;63004;-57
2024/03/21 02:12:44;;;;;;;0.50;0.50;;;;;;;10.48;81.92;97043.03;29396;207;63004;-56
2024/03/21 02:13:15;;;;;;;0.50;0.50;;;;;;;10.49;82.15;97036.50;29396;228;63009;-56
2024/03/21 02:13:46;;;;;;;0.50;0.50;;;;;;;10.49;81.90;97036.50;29396;241;63004;-56
2024/03/21 02:14:22;;;;;;;0.50;0.50;;;;;;;10.50;82.15;97042.72;29395;247;64013;-56
2024/03/21 02:14:54;;;;;;;0.50;0.50;;;;;;;10.49;82.24;97031.06;29396;218;63004;-56
2024/03/21 02:15:27;;;;;;;0.50;0.50;;;;;;;10.48;82.30;97034.88;29396;197;63009;-56
2024/03/21 02:15:58;;;;;;;0.50;0.50;;;;;;;10.52;81.78;97038.63;29395;215;64009;-56
2024/03/21 02:16:32;;;;;;;0.50;0.50;;;;;;;10.53;81.73;97040.25;29396;202;63009;-69
2024/03/21 02:17:04;;;;;;;0.50;0.50;;;;;;;10.56;81.44;97036.97;29396;200;63005;-72
2024/03/21 02:17:35;;;;;;;0.50;0.50;;;;;;;10.57;81.43;97040.50;29396;239;63023;-56
2024/03/21 02:18:07;;;;;;;0.50;0.50;;;;;;;10.55;81.30;97040.78;29396;248;63005;-56
2024/03/21 02:18:39;;;;;;;0.50;0.50;;;;;;;10.56;81.29;97042.41;29396;248;63009;-56
2024/03/21 02:19:10;;;;;;;0.50;0.50;;;;;;;10.56;81.08;97028.81;29396;212;63005;-56
2024/03/21 02:19:41;;;;;;;0.50;0.50;;;;;;;10.56;82.05;97038.88;29396;228;63009;-56
2024/03/21 02:20:13;;;;;;;0.50;0.50;;;;;;;10.55;81.64;97029.91;29395;213;64009;-56
2024/03/21 02:20:44;;;;;;;0.50;0.50;;;;;;;10.55;81.90;97039.97;29396;249;63009;-56
2024/03/21 02:22:55;;;;;;;0.50;0.50;;;;;;;10.53;81.94;97034.81;29396;206;63005;-71
2024/03/21 02:23:26;;;;;;;0.50;0.50;;;;;;;10.53;81.84;97032.12;29396;245;63015;-56
2024/03/21 02:23:57;;;;;;;0.50;0.50;;;;;;;10.51;82.15;97034.31;29397;209;63005;-69
2024/03/21 02:24:29;;;;;;;0.70;0.70;;;;;;;10.50;81.88;97038.13;29396;224;64013;-71
2024/03/21 02:25:01;;;;;;;0.50;0.50;;;;;;;10.52;81.94;97035.91;29397;214;63005;-55
2024/03/21 02:25:32;;;;;;;0.50;0.50;;;;;;;10.55;81.90;97039.97;29397;309;63009;-56
2024/03/21 02:26:04;;;;;;;0.50;0.50;;;;;;;10.55;81.77;97029.91;29397;196;63008;-56
2024/03/21 02:26:35;;;;;;;0.50;0.50;;;;;;;10.59;81.39;97039.09;29397;196;63009;-56
2024/03/21 02:27:06;;;;;;;0.50;0.50;;;;;;;10.59;81.14;97036.37;29396;258;64009;-54
2024/03/21 02:27:41;;;;;;;0.50;0.50;;;;;;;10.60;81.24;97029.88;29397;229;63009;-56
2024/03/21 02:28:13;;;;;;;0.50;0.50;;;;;;;10.61;81.65;97045.06;29397;273;63004;-55
2024/03/21 02:28:55;;;;;;;0.50;0.50;;;;;;;10.62;81.25;97029.59;29397;252;63009;-70
2024/03/21 02:29:26;;;;;;;0.50;0.50;;;;;;;10.62;81.54;97040.44;29419;207;63004;-56
2024/03/21 02:29:58;;;;;;;0.50;0.50;;;;;;;10.60;81.54;97038.00;29397;206;63008;-56
2024/03/21 02:30:29;;;;;;;0.50;0.50;;;;;;;10.59;81.95;97041.81;29397;206;63005;-56
2024/03/21 02:31:01;;;;;;;0.50;0.50;;;;;;;10.60;81.63;97042.63;29397;206;63009;-56
2024/03/21 02:31:33;;;;;;;0.50;0.50;;;;;;;10.59;81.69;97046.44;29397;243;63005;-55
2024/03/21 02:32:05;;;;;;;0.50;0.50;;;;;;;10.56;82.13;97036.97;29397;237;63005;-56
2024/03/21 02:32:37;;;;;;;0.50;0.50;;;;;;;10.56;81.57;97042.41;29396;241;64009;-56
2024/03/21 02:33:09;;;;;;;0.50;0.50;;;;;;;10.55;81.86;97046.19;29397;264;63013;-56
2024/03/21 02:33:40;;;;;;;0.50;0.50;;;;;;;10.54;82.09;97050.00;29397;325;63004;-55
2024/03/21 02:34:11;;;;;;;0.50;0.50;;;;;;;10.53;82.23;97051.09;29397;202;63009;-56
2024/03/21 02:34:42;;;;;;;0.50;0.50;;;;;;;10.56;81.88;97047.00;29397;266;63004;-72
2024/03/21 02:35:20;;;;;;;0.50;0.50;;;;;;;10.57;81.90;97046.72;29397;202;63009;-56
2024/03/21 02:37:01;;;;;;;0.50;0.50;;;;;;;10.54;82.60;97050.00;88174;197;64004;-56
2024/03/21 02:37:32;;;;;;;0.50;0.50;;;;;;;10.54;82.97;97055.44;29394;214;64009;-56